East Olympia, WA

3:32 PM PDT on August 30, 2015 (GMT -0700)
Riverlea | | Change Station
CLOSE
Current Station
Personal Weather Station
Location: Olympia, WA
Elevation: 220 ft
Nearby Weather Stations

Elev 220 ft 46.98 °N, 122.86 °W | Updated 2 minutes ago

Overcast
Overcast
66.5 °F
Feels Like 66.5 °F
N
2.0
Wind Variable Wind from WSW
Gusts 8.0 mph

Today
High -- | Low -- °F
--% Chance of Precip.
Yesterday
High -- | Low -- °F
Precip. -- in
6:27 AM 7:54 PM
Full, 98% visible
Pressure 29.97 in
Visibility 10.0 miles
Clouds Few 3700 ft
Mostly Cloudy 6000 ft
Overcast 9500 ft
Dew Point 59 °F
Humidity 77%
Rainfall 0.76 in
Snow Depth Not available.
UV 2 out of 12
Pollen .50 out of 12
Air Quality Not available.
Flu Activity Not available.
METAR KOLM 302154Z 27008KT 10SM FEW037 BKN060 OVC095 18/13 A2997 RMK AO2 RAB28E45 SLP148 P0002 T01830128
Pressure 29.97 in
Visibility 10.0 miles
Clouds Few 3700 ft
Mostly Cloudy 6000 ft
Overcast 9500 ft
Dew Point 59 °F
Humidity 77%
Rainfall 0.76 in
Snow Depth Not available.
UV 2 out of 12
Pollen .50 out of 12
Air Quality Not available.
Flu Activity Not available.
METAR KOLM 302154Z 27008KT 10SM FEW037 BKN060 OVC095 18/13 A2997 RMK AO2 RAB28E45 SLP148 P0002 T01830128

10-Day Weather Forecast

×

Almanac

Astronomy

Aug. 30, 2015 Rise Set
Actual Time
Civil Twilight
Nautical Twilight
Astronomical Twilight
Moon
Length of Visible Light
Length of Day
Tomorrow will be .
, % of the Moon is Illuminated

Today's Extremes

State Highs State Lows

Community

WunderPhotos

Upload Photos

1,851,074 photos uploaded!

WunderBlogs® & News

Nearby

Air Quality

  Air Quality AQ Index Pollutant
Not available.

Snow Depth

Station Depth Elevation

Earthquake Activity

City Distance Mag. Time & Date
Minimum magnitude displayed is 2.5.

Coastal Water Temperatures

Place Temperature

Stations

Nearby Weather Stations

Station Location Temp. Windchill Dew Point Humidity Wind Precip. Elev Updated Type